sensor_id;sensor_type;location;lat;lon;timestamp;P1;durP1;ratioP1;P2;durP2;ratioP2
32216;SDS011;67098;51.140;4.088;2023-07-31T00:01:55;27.02;;;6.53;;
32216;SDS011;67098;51.140;4.088;2023-07-31T00:04:20;19.70;;;7.10;;
32216;SDS011;67098;51.140;4.088;2023-07-31T00:06:46;25.13;;;7.38;;
32216;SDS011;67098;51.140;4.088;2023-07-31T00:09:12;24.08;;;7.45;;
32216;SDS011;67098;51.140;4.088;2023-07-31T00:11:38;26.92;;;7.60;;
32216;SDS011;67098;51.140;4.088;2023-07-31T00:14:03;31.35;;;7.35;;
32216;SDS011;67098;51.140;4.088;2023-07-31T00:16:29;26.70;;;7.25;;
32216;SDS011;67098;51.140;4.088;2023-07-31T00:18:55;26.23;;;6.72;;
32216;SDS011;67098;51.140;4.088;2023-07-31T00:21:21;30.27;;;8.13;;
32216;SDS011;67098;51.140;4.088;2023-07-31T00:23:46;23.02;;;8.13;;
32216;SDS011;67098;51.140;4.088;2023-07-31T00:26:12;23.42;;;6.80;;
32216;SDS011;67098;51.140;4.088;2023-07-31T00:28:38;23.33;;;7.28;;
32216;SDS011;67098;51.140;4.088;2023-07-31T00:31:03;31.98;;;7.70;;
32216;SDS011;67098;51.140;4.088;2023-07-31T00:33:31;20.38;;;6.97;;
32216;SDS011;67098;51.140;4.088;2023-07-31T00:35:56;23.67;;;7.22;;
32216;SDS011;67098;51.140;4.088;2023-07-31T00:38:22;22.33;;;8.00;;
32216;SDS011;67098;51.140;4.088;2023-07-31T00:40:48;21.40;;;7.55;;
32216;SDS011;67098;51.140;4.088;2023-07-31T00:43:13;23.20;;;7.55;;
32216;SDS011;67098;51.140;4.088;2023-07-31T00:45:39;23.95;;;6.72;;
32216;SDS011;67098;51.140;4.088;2023-07-31T00:48:05;26.10;;;7.90;;
32216;SDS011;67098;51.140;4.088;2023-07-31T00:50:32;23.25;;;7.22;;
32216;SDS011;67098;51.140;4.088;2023-07-31T00:52:58;30.08;;;8.52;;
32216;SDS011;67098;51.140;4.088;2023-07-31T00:55:24;24.58;;;8.15;;
32216;SDS011;67098;51.140;4.088;2023-07-31T00:57:50;26.80;;;8.13;;
32216;SDS011;67098;51.140;4.088;2023-07-31T01:00:17;28.60;;;7.97;;
32216;SDS011;67098;51.140;4.088;2023-07-31T01:02:44;23.15;;;7.38;;
32216;SDS011;67098;51.140;4.088;2023-07-31T01:05:10;24.48;;;7.95;;
32216;SDS011;67098;51.140;4.088;2023-07-31T01:07:49;26.38;;;7.38;;
32216;SDS011;67098;51.140;4.088;2023-07-31T01:10:20;31.27;;;7.57;;
32216;SDS011;67098;51.140;4.088;2023-07-31T01:12:50;19.13;;;6.73;;
32216;SDS011;67098;51.140;4.088;2023-07-31T01:15:18;24.55;;;8.02;;
32216;SDS011;67098;51.140;4.088;2023-07-31T01:17:45;19.33;;;7.28;;
32216;SDS011;67098;51.140;4.088;2023-07-31T01:20:18;22.95;;;6.85;;
32216;SDS011;67098;51.140;4.088;2023-07-31T01:28:25;19.85;;;7.03;;
32216;SDS011;67098;51.140;4.088;2023-07-31T01:31:02;23.05;;;7.20;;
32216;SDS011;67098;51.140;4.088;2023-07-31T01:33:32;27.17;;;7.00;;
32216;SDS011;67098;51.140;4.088;2023-07-31T01:35:58;24.27;;;7.10;;
32216;SDS011;67098;51.140;4.088;2023-07-31T01:38:24;24.85;;;7.38;;
32216;SDS011;67098;51.140;4.088;2023-07-31T01:40:51;26.65;;;6.70;;
32216;SDS011;67098;51.140;4.088;2023-07-31T01:43:18;21.35;;;7.50;;
32216;SDS011;67098;51.140;4.088;2023-07-31T01:45:44;21.48;;;7.25;;
32216;SDS011;67098;51.140;4.088;2023-07-31T01:48:09;20.95;;;6.63;;
32216;SDS011;67098;51.140;4.088;2023-07-31T01:50:35;21.50;;;6.43;;
32216;SDS011;67098;51.140;4.088;2023-07-31T01:53:01;26.48;;;6.53;;
32216;SDS011;67098;51.140;4.088;2023-07-31T01:55:26;25.48;;;6.88;;
32216;SDS011;67098;51.140;4.088;2023-07-31T01:57:52;20.85;;;7.35;;
32216;SDS011;67098;51.140;4.088;2023-07-31T02:00:18;26.05;;;7.65;;
32216;SDS011;67098;51.140;4.088;2023-07-31T02:02:44;25.67;;;7.78;;
32216;SDS011;67098;51.140;4.088;2023-07-31T02:05:10;23.40;;;6.88;;
32216;SDS011;67098;51.140;4.088;2023-07-31T02:07:35;22.25;;;6.85;;
32216;SDS011;67098;51.140;4.088;2023-07-31T02:10:02;22.02;;;7.07;;
32216;SDS011;67098;51.140;4.088;2023-07-31T02:12:28;19.02;;;6.53;;
32216;SDS011;67098;51.140;4.088;2023-07-31T02:14:57;24.30;;;7.10;;
32216;SDS011;67098;51.140;4.088;2023-07-31T02:17:22;21.95;;;7.18;;
32216;SDS011;67098;51.140;4.088;2023-07-31T02:19:48;24.27;;;6.80;;
32216;SDS011;67098;51.140;4.088;2023-07-31T02:22:14;16.35;;;6.40;;
32216;SDS011;67098;51.140;4.088;2023-07-31T02:24:40;21.02;;;6.45;;
32216;SDS011;67098;51.140;4.088;2023-07-31T02:27:05;20.33;;;6.75;;
32216;SDS011;67098;51.140;4.088;2023-07-31T02:29:31;24.15;;;7.22;;
32216;SDS011;67098;51.140;4.088;2023-07-31T02:31:57;20.80;;;6.68;;
32216;SDS011;67098;51.140;4.088;2023-07-31T02:34:22;21.58;;;6.57;;
32216;SDS011;67098;51.140;4.088;2023-07-31T02:36:48;17.30;;;5.75;;
32216;SDS011;67098;51.140;4.088;2023-07-31T02:39:14;24.38;;;6.45;;
32216;SDS011;67098;51.140;4.088;2023-07-31T02:41:40;21.15;;;6.65;;
32216;SDS011;67098;51.140;4.088;2023-07-31T02:44:05;18.83;;;5.75;;
32216;SDS011;67098;51.140;4.088;2023-07-31T02:46:31;18.75;;;6.30;;
32216;SDS011;67098;51.140;4.088;2023-07-31T02:48:57;24.75;;;6.95;;
32216;SDS011;67098;51.140;4.088;2023-07-31T02:51:23;20.13;;;7.03;;
32216;SDS011;67098;51.140;4.088;2023-07-31T02:53:48;21.50;;;5.28;;
32216;SDS011;67098;51.140;4.088;2023-07-31T02:56:14;19.05;;;5.93;;
32216;SDS011;67098;51.140;4.088;2023-07-31T02:58:40;20.55;;;6.32;;
32216;SDS011;67098;51.140;4.088;2023-07-31T03:01:06;21.17;;;6.10;;
32216;SDS011;67098;51.140;4.088;2023-07-31T03:03:31;23.85;;;6.70;;
32216;SDS011;67098;51.140;4.088;2023-07-31T03:05:57;23.98;;;6.18;;
32216;SDS011;67098;51.140;4.088;2023-07-31T03:08:23;20.05;;;5.45;;
32216;SDS011;67098;51.140;4.088;2023-07-31T03:10:49;19.95;;;6.75;;
32216;SDS011;67098;51.140;4.088;2023-07-31T03:13:14;20.67;;;6.47;;
32216;SDS011;67098;51.140;4.088;2023-07-31T03:15:43;22.08;;;6.07;;
32216;SDS011;67098;51.140;4.088;2023-07-31T03:18:09;17.70;;;6.43;;
32216;SDS011;67098;51.140;4.088;2023-07-31T03:20:35;20.73;;;6.45;;
32216;SDS011;67098;51.140;4.088;2023-07-31T03:23:00;21.27;;;6.03;;
32216;SDS011;67098;51.140;4.088;2023-07-31T03:25:26;23.08;;;6.75;;
32216;SDS011;67098;51.140;4.088;2023-07-31T03:27:52;23.23;;;6.72;;
32216;SDS011;67098;51.140;4.088;2023-07-31T03:30:17;25.00;;;6.47;;
32216;SDS011;67098;51.140;4.088;2023-07-31T03:32:43;23.55;;;6.40;;
32216;SDS011;67098;51.140;4.088;2023-07-31T03:35:09;21.27;;;6.25;;
32216;SDS011;67098;51.140;4.088;2023-07-31T03:37:35;23.30;;;5.80;;
32216;SDS011;67098;51.140;4.088;2023-07-31T03:40:01;17.08;;;5.80;;
32216;SDS011;67098;51.140;4.088;2023-07-31T03:42:27;24.48;;;6.75;;
32216;SDS011;67098;51.140;4.088;2023-07-31T03:44:53;16.65;;;5.75;;
32216;SDS011;67098;51.140;4.088;2023-07-31T03:47:18;21.45;;;6.18;;
32216;SDS011;67098;51.140;4.088;2023-07-31T03:49:44;19.35;;;6.47;;
32216;SDS011;67098;51.140;4.088;2023-07-31T03:52:10;21.08;;;6.15;;
32216;SDS011;67098;51.140;4.088;2023-07-31T03:54:36;22.08;;;6.43;;
32216;SDS011;67098;51.140;4.088;2023-07-31T03:57:01;22.83;;;7.18;;
32216;SDS011;67098;51.140;4.088;2023-07-31T03:59:27;19.17;;;6.47;;
32216;SDS011;67098;51.140;4.088;2023-07-31T04:01:53;25.35;;;7.00;;
32216;SDS011;67098;51.140;4.088;2023-07-31T04:04:19;22.48;;;7.05;;
32216;SDS011;67098;51.140;4.088;2023-07-31T04:06:44;20.30;;;6.57;;
32216;SDS011;67098;51.140;4.088;2023-07-31T04:09:10;17.10;;;5.93;;
32216;SDS011;67098;51.140;4.088;2023-07-31T04:11:36;19.05;;;5.95;;
32216;SDS011;67098;51.140;4.088;2023-07-31T04:14:02;20.58;;;6.80;;
32216;SDS011;67098;51.140;4.088;2023-07-31T04:16:27;20.20;;;7.00;;
32216;SDS011;67098;51.140;4.088;2023-07-31T04:18:53;15.77;;;6.22;;
32216;SDS011;67098;51.140;4.088;2023-07-31T04:21:19;22.95;;;7.65;;
32216;SDS011;67098;51.140;4.088;2023-07-31T04:23:45;20.38;;;6.45;;
32216;SDS011;67098;51.140;4.088;2023-07-31T04:26:10;16.23;;;5.70;;
32216;SDS011;67098;51.140;4.088;2023-07-31T04:28:36;17.10;;;6.57;;
32216;SDS011;67098;51.140;4.088;2023-07-31T04:31:02;18.40;;;6.32;;
32216;SDS011;67098;51.140;4.088;2023-07-31T04:33:28;20.48;;;6.40;;
32216;SDS011;67098;51.140;4.088;2023-07-31T04:35:54;23.27;;;6.50;;
32216;SDS011;67098;51.140;4.088;2023-07-31T04:38:20;18.75;;;6.40;;
32216;SDS011;67098;51.140;4.088;2023-07-31T04:40:47;17.75;;;6.43;;
32216;SDS011;67098;51.140;4.088;2023-07-31T04:43:13;19.70;;;6.05;;
32216;SDS011;67098;51.140;4.088;2023-07-31T04:45:39;19.60;;;6.18;;
32216;SDS011;67098;51.140;4.088;2023-07-31T04:48:07;17.48;;;5.40;;
32216;SDS011;67098;51.140;4.088;2023-07-31T04:50:32;16.70;;;6.05;;
32216;SDS011;67098;51.140;4.088;2023-07-31T04:52:58;14.13;;;5.38;;
32216;SDS011;67098;51.140;4.088;2023-07-31T04:55:24;14.57;;;5.20;;
32216;SDS011;67098;51.140;4.088;2023-07-31T04:57:49;13.98;;;5.35;;
32216;SDS011;67098;51.140;4.088;2023-07-31T05:00:15;18.63;;;5.57;;
32216;SDS011;67098;51.140;4.088;2023-07-31T05:02:41;12.90;;;5.40;;
32216;SDS011;67098;51.140;4.088;2023-07-31T05:05:07;11.10;;;5.13;;
32216;SDS011;67098;51.140;4.088;2023-07-31T05:07:33;16.55;;;5.03;;
32216;SDS011;67098;51.140;4.088;2023-07-31T05:09:58;10.57;;;4.65;;
32216;SDS011;67098;51.140;4.088;2023-07-31T05:12:24;14.82;;;5.55;;
32216;SDS011;67098;51.140;4.088;2023-07-31T05:14:50;10.55;;;5.10;;
32216;SDS011;67098;51.140;4.088;2023-07-31T05:17:16;15.23;;;5.35;;
32216;SDS011;67098;51.140;4.088;2023-07-31T05:19:41;13.43;;;5.35;;
32216;SDS011;67098;51.140;4.088;2023-07-31T05:22:07;15.00;;;5.20;;
32216;SDS011;67098;51.140;4.088;2023-07-31T05:24:33;13.35;;;5.60;;
32216;SDS011;67098;51.140;4.088;2023-07-31T05:26:59;11.35;;;4.93;;
32216;SDS011;67098;51.140;4.088;2023-07-31T05:29:24;18.50;;;5.88;;
32216;SDS011;67098;51.140;4.088;2023-07-31T05:31:50;11.80;;;5.03;;
32216;SDS011;67098;51.140;4.088;2023-07-31T05:34:16;14.20;;;5.10;;
32216;SDS011;67098;51.140;4.088;2023-07-31T05:36:41;11.52;;;4.78;;
32216;SDS011;67098;51.140;4.088;2023-07-31T05:39:07;11.63;;;5.28;;
32216;SDS011;67098;51.140;4.088;2023-07-31T05:41:33;10.35;;;4.85;;
32216;SDS011;67098;51.140;4.088;2023-07-31T05:44:00;10.70;;;4.70;;
32216;SDS011;67098;51.140;4.088;2023-07-31T05:46:26;13.85;;;4.95;;
32216;SDS011;67098;51.140;4.088;2023-07-31T05:48:51;12.02;;;5.72;;
32216;SDS011;67098;51.140;4.088;2023-07-31T05:51:17;10.68;;;4.72;;
32216;SDS011;67098;51.140;4.088;2023-07-31T05:53:43;12.02;;;5.65;;
32216;SDS011;67098;51.140;4.088;2023-07-31T05:56:08;13.88;;;5.43;;
32216;SDS011;67098;51.140;4.088;2023-07-31T05:58:34;15.57;;;5.70;;
32216;SDS011;67098;51.140;4.088;2023-07-31T06:01:00;10.60;;;5.55;;
32216;SDS011;67098;51.140;4.088;2023-07-31T06:03:26;12.13;;;4.90;;
32216;SDS011;67098;51.140;4.088;2023-07-31T06:05:52;12.65;;;5.65;;
32216;SDS011;67098;51.140;4.088;2023-07-31T06:08:17;15.38;;;5.40;;
32216;SDS011;67098;51.140;4.088;2023-07-31T06:10:43;11.55;;;5.28;;
32216;SDS011;67098;51.140;4.088;2023-07-31T06:13:09;12.35;;;5.53;;
32216;SDS011;67098;51.140;4.088;2023-07-31T06:15:35;14.30;;;5.93;;
32216;SDS011;67098;51.140;4.088;2023-07-31T06:18:00;12.68;;;5.35;;
32216;SDS011;67098;51.140;4.088;2023-07-31T06:20:27;16.13;;;5.20;;
32216;SDS011;67098;51.140;4.088;2023-07-31T06:22:53;9.82;;;5.32;;
32216;SDS011;67098;51.140;4.088;2023-07-31T06:25:19;14.52;;;5.38;;
32216;SDS011;67098;51.140;4.088;2023-07-31T06:27:45;18.83;;;5.88;;
32216;SDS011;67098;51.140;4.088;2023-07-31T06:30:11;13.77;;;5.75;;
32216;SDS011;67098;51.140;4.088;2023-07-31T06:32:37;11.75;;;5.15;;
32216;SDS011;67098;51.140;4.088;2023-07-31T06:35:03;14.05;;;5.35;;
32216;SDS011;67098;51.140;4.088;2023-07-31T06:37:29;15.27;;;5.43;;
32216;SDS011;67098;51.140;4.088;2023-07-31T06:39:54;12.18;;;4.97;;
32216;SDS011;67098;51.140;4.088;2023-07-31T06:42:20;15.95;;;5.10;;
32216;SDS011;67098;51.140;4.088;2023-07-31T06:44:46;9.70;;;4.97;;
32216;SDS011;67098;51.140;4.088;2023-07-31T06:47:12;14.55;;;5.10;;
32216;SDS011;67098;51.140;4.088;2023-07-31T06:49:37;15.90;;;5.25;;
32216;SDS011;67098;51.140;4.088;2023-07-31T06:52:03;19.98;;;5.15;;
32216;SDS011;67098;51.140;4.088;2023-07-31T06:54:29;11.70;;;4.75;;
32216;SDS011;67098;51.140;4.088;2023-07-31T06:56:55;13.75;;;5.22;;
32216;SDS011;67098;51.140;4.088;2023-07-31T06:59:21;14.18;;;5.88;;
32216;SDS011;67098;51.140;4.088;2023-07-31T07:01:46;15.77;;;5.35;;
32216;SDS011;67098;51.140;4.088;2023-07-31T07:04:13;18.10;;;5.32;;
32216;SDS011;67098;51.140;4.088;2023-07-31T07:06:39;14.45;;;4.72;;
32216;SDS011;67098;51.140;4.088;2023-07-31T07:09:05;17.35;;;4.97;;
32216;SDS011;67098;51.140;4.088;2023-07-31T07:11:31;17.67;;;5.38;;
32216;SDS011;67098;51.140;4.088;2023-07-31T07:13:57;12.85;;;4.80;;
32216;SDS011;67098;51.140;4.088;2023-07-31T07:16:22;13.35;;;4.78;;
32216;SDS011;67098;51.140;4.088;2023-07-31T07:18:48;13.40;;;5.80;;
32216;SDS011;67098;51.140;4.088;2023-07-31T07:21:14;9.65;;;4.25;;
32216;SDS011;67098;51.140;4.088;2023-07-31T07:23:41;14.70;;;4.78;;
32216;SDS011;67098;51.140;4.088;2023-07-31T07:26:07;15.45;;;5.30;;
32216;SDS011;67098;51.140;4.088;2023-07-31T07:28:33;12.90;;;4.85;;
32216;SDS011;67098;51.140;4.088;2023-07-31T07:30:59;15.50;;;5.30;;
32216;SDS011;67098;51.140;4.088;2023-07-31T07:33:25;14.50;;;5.13;;
32216;SDS011;67098;51.140;4.088;2023-07-31T07:35:50;15.25;;;4.90;;
32216;SDS011;67098;51.140;4.088;2023-07-31T07:38:16;12.40;;;4.60;;
32216;SDS011;67098;51.140;4.088;2023-07-31T07:40:42;14.18;;;4.63;;
32216;SDS011;67098;51.140;4.088;2023-07-31T07:43:07;16.48;;;4.60;;
32216;SDS011;67098;51.140;4.088;2023-07-31T07:45:33;9.05;;;4.25;;
32216;SDS011;67098;51.140;4.088;2023-07-31T07:47:59;9.00;;;4.30;;
32216;SDS011;67098;51.140;4.088;2023-07-31T07:50:25;13.95;;;4.40;;
32216;SDS011;67098;51.140;4.088;2023-07-31T07:52:50;8.68;;;4.10;;
32216;SDS011;67098;51.140;4.088;2023-07-31T07:55:16;11.57;;;4.03;;
32216;SDS011;67098;51.140;4.088;2023-07-31T07:57:42;11.10;;;3.60;;
32216;SDS011;67098;51.140;4.088;2023-07-31T08:00:09;11.60;;;4.35;;
32216;SDS011;67098;51.140;4.088;2023-07-31T08:02:36;12.98;;;4.53;;
32216;SDS011;67098;51.140;4.088;2023-07-31T08:05:02;12.60;;;3.95;;
32216;SDS011;67098;51.140;4.088;2023-07-31T08:07:29;13.52;;;4.20;;
32216;SDS011;67098;51.140;4.088;2023-07-31T08:09:55;10.93;;;4.18;;
32216;SDS011;67098;51.140;4.088;2023-07-31T08:12:20;11.95;;;4.45;;
32216;SDS011;67098;51.140;4.088;2023-07-31T08:14:46;7.30;;;3.88;;
32216;SDS011;67098;51.140;4.088;2023-07-31T08:17:12;11.95;;;4.45;;
32216;SDS011;67098;51.140;4.088;2023-07-31T08:19:38;12.68;;;3.90;;
32216;SDS011;67098;51.140;4.088;2023-07-31T08:22:05;7.18;;;3.63;;
32216;SDS011;67098;51.140;4.088;2023-07-31T08:24:31;10.60;;;3.78;;
32216;SDS011;67098;51.140;4.088;2023-07-31T08:26:57;9.48;;;3.65;;
32216;SDS011;67098;51.140;4.088;2023-07-31T08:29:23;10.80;;;3.97;;
32216;SDS011;67098;51.140;4.088;2023-07-31T08:31:49;8.57;;;3.67;;
32216;SDS011;67098;51.140;4.088;2023-07-31T08:34:15;8.00;;;3.78;;
32216;SDS011;67098;51.140;4.088;2023-07-31T08:36:41;9.25;;;3.00;;
32216;SDS011;67098;51.140;4.088;2023-07-31T08:39:08;8.73;;;3.47;;
32216;SDS011;67098;51.140;4.088;2023-07-31T08:41:37;7.07;;;3.22;;
32216;SDS011;67098;51.140;4.088;2023-07-31T08:44:04;5.63;;;3.30;;
32216;SDS011;67098;51.140;4.088;2023-07-31T08:46:31;14.45;;;3.58;;
32216;SDS011;67098;51.140;4.088;2023-07-31T08:48:58;10.40;;;3.35;;
32216;SDS011;67098;51.140;4.088;2023-07-31T08:51:25;12.05;;;3.53;;
32216;SDS011;67098;51.140;4.088;2023-07-31T08:53:52;9.25;;;3.35;;
32216;SDS011;67098;51.140;4.088;2023-07-31T08:56:18;9.73;;;3.33;;
32216;SDS011;67098;51.140;4.088;2023-07-31T08:58:44;8.45;;;3.00;;
32216;SDS011;67098;51.140;4.088;2023-07-31T09:01:12;7.60;;;3.08;;
32216;SDS011;67098;51.140;4.088;2023-07-31T09:03:40;11.18;;;3.10;;
32216;SDS011;67098;51.140;4.088;2023-07-31T09:06:07;5.45;;;3.10;;
32216;SDS011;67098;51.140;4.088;2023-07-31T09:08:33;6.95;;;2.72;;
32216;SDS011;67098;51.140;4.088;2023-07-31T09:11:00;6.38;;;2.60;;
32216;SDS011;67098;51.140;4.088;2023-07-31T09:13:28;7.13;;;2.70;;
32216;SDS011;67098;51.140;4.088;2023-07-31T09:15:56;7.15;;;2.70;;
32216;SDS011;67098;51.140;4.088;2023-07-31T09:18:22;3.90;;;2.13;;
32216;SDS011;67098;51.140;4.088;2023-07-31T09:21:01;5.30;;;2.42;;
32216;SDS011;67098;51.140;4.088;2023-07-31T09:23:27;4.22;;;2.40;;
32216;SDS011;67098;51.140;4.088;2023-07-31T09:26:06;9.85;;;2.88;;
32216;SDS011;67098;51.140;4.088;2023-07-31T09:28:31;7.28;;;3.08;;
32216;SDS011;67098;51.140;4.088;2023-07-31T09:30:57;5.60;;;2.95;;
32216;SDS011;67098;51.140;4.088;2023-07-31T09:33:23;7.72;;;2.50;;
32216;SDS011;67098;51.140;4.088;2023-07-31T09:35:49;7.50;;;2.85;;
32216;SDS011;67098;51.140;4.088;2023-07-31T09:38:14;4.50;;;2.63;;
32216;SDS011;67098;51.140;4.088;2023-07-31T09:40:42;6.78;;;3.08;;
32216;SDS011;67098;51.140;4.088;2023-07-31T09:43:13;6.97;;;2.67;;
32216;SDS011;67098;51.140;4.088;2023-07-31T09:45:43;6.15;;;2.58;;
32216;SDS011;67098;51.140;4.088;2023-07-31T09:48:16;6.93;;;3.08;;
32216;SDS011;67098;51.140;4.088;2023-07-31T09:50:43;9.82;;;3.13;;
32216;SDS011;67098;51.140;4.088;2023-07-31T09:53:10;10.43;;;3.47;;
32216;SDS011;67098;51.140;4.088;2023-07-31T09:55:37;7.18;;;2.95;;
32216;SDS011;67098;51.140;4.088;2023-07-31T09:58:07;6.88;;;3.38;;
32216;SDS011;67098;51.140;4.088;2023-07-31T10:03:01;6.72;;;3.47;;
32216;SDS011;67098;51.140;4.088;2023-07-31T10:05:38;9.55;;;3.85;;
32216;SDS011;67098;51.140;4.088;2023-07-31T10:08:07;8.73;;;3.75;;
32216;SDS011;67098;51.140;4.088;2023-07-31T10:10:39;9.95;;;3.70;;
32216;SDS011;67098;51.140;4.088;2023-07-31T10:13:07;7.53;;;3.88;;
32216;SDS011;67098;51.140;4.088;2023-07-31T10:15:34;12.23;;;3.95;;
32216;SDS011;67098;51.140;4.088;2023-07-31T10:18:00;10.65;;;3.80;;
32216;SDS011;67098;51.140;4.088;2023-07-31T10:20:27;6.97;;;3.55;;
32216;SDS011;67098;51.140;4.088;2023-07-31T10:22:55;8.88;;;4.03;;
32216;SDS011;67098;51.140;4.088;2023-07-31T10:25:21;9.27;;;4.03;;
32216;SDS011;67098;51.140;4.088;2023-07-31T10:27:48;10.18;;;3.80;;
32216;SDS011;67098;51.140;4.088;2023-07-31T10:30:15;8.77;;;3.92;;
32216;SDS011;67098;51.140;4.088;2023-07-31T10:32:44;9.20;;;3.95;;
32216;SDS011;67098;51.140;4.088;2023-07-31T10:35:11;11.02;;;4.05;;
32216;SDS011;67098;51.140;4.088;2023-07-31T10:42:37;9.57;;;4.70;;
32216;SDS011;67098;51.140;4.088;2023-07-31T10:45:10;10.63;;;4.82;;
32216;SDS011;67098;51.140;4.088;2023-07-31T10:47:36;10.18;;;4.28;;
32216;SDS011;67098;51.140;4.088;2023-07-31T10:50:18;8.07;;;4.00;;
32216;SDS011;67098;51.140;4.088;2023-07-31T10:52:49;9.15;;;4.32;;
32216;SDS011;67098;51.140;4.088;2023-07-31T10:58:05;10.73;;;4.63;;
32216;SDS011;67098;51.140;4.088;2023-07-31T11:00:31;10.52;;;5.03;;
32216;SDS011;67098;51.140;4.088;2023-07-31T11:08:18;11.23;;;4.75;;
32216;SDS011;67098;51.140;4.088;2023-07-31T11:10:48;10.13;;;4.68;;
32216;SDS011;67098;51.140;4.088;2023-07-31T11:13:16;11.70;;;5.78;;
32216;SDS011;67098;51.140;4.088;2023-07-31T11:15:42;9.02;;;4.82;;
32216;SDS011;67098;51.140;4.088;2023-07-31T11:18:07;14.57;;;5.57;;
32216;SDS011;67098;51.140;4.088;2023-07-31T11:20:36;10.13;;;4.82;;
32216;SDS011;67098;51.140;4.088;2023-07-31T11:23:03;12.23;;;5.20;;
32216;SDS011;67098;51.140;4.088;2023-07-31T11:25:33;9.77;;;5.25;;
32216;SDS011;67098;51.140;4.088;2023-07-31T11:28:06;14.25;;;5.30;;
32216;SDS011;67098;51.140;4.088;2023-07-31T11:30:36;11.32;;;5.47;;
32216;SDS011;67098;51.140;4.088;2023-07-31T11:33:03;13.82;;;5.47;;
32216;SDS011;67098;51.140;4.088;2023-07-31T11:35:31;10.68;;;5.15;;
32216;SDS011;67098;51.140;4.088;2023-07-31T11:38:01;13.18;;;5.60;;
32216;SDS011;67098;51.140;4.088;2023-07-31T11:40:27;12.48;;;5.38;;
32216;SDS011;67098;51.140;4.088;2023-07-31T11:42:55;14.10;;;5.22;;
32216;SDS011;67098;51.140;4.088;2023-07-31T11:45:24;10.98;;;5.03;;
32216;SDS011;67098;51.140;4.088;2023-07-31T11:47:51;17.55;;;6.03;;
32216;SDS011;67098;51.140;4.088;2023-07-31T11:50:17;13.55;;;5.07;;
32216;SDS011;67098;51.140;4.088;2023-07-31T11:52:44;10.85;;;4.93;;
32216;SDS011;67098;51.140;4.088;2023-07-31T11:55:11;10.50;;;4.88;;
32216;SDS011;67098;51.140;4.088;2023-07-31T11:57:38;13.88;;;5.72;;
32216;SDS011;67098;51.140;4.088;2023-07-31T12:00:06;12.82;;;5.82;;
32216;SDS011;67098;51.140;4.088;2023-07-31T12:02:36;12.05;;;5.13;;
32216;SDS011;67098;51.140;4.088;2023-07-31T12:05:04;11.50;;;4.85;;
32216;SDS011;67098;51.140;4.088;2023-07-31T12:07:42;14.40;;;5.22;;
32216;SDS011;67098;51.140;4.088;2023-07-31T12:13:20;12.02;;;5.65;;
32216;SDS011;67098;51.140;4.088;2023-07-31T12:15:54;8.95;;;4.97;;
32216;SDS011;67098;51.140;4.088;2023-07-31T12:18:22;12.15;;;5.47;;
32216;SDS011;67098;51.140;4.088;2023-07-31T12:23:26;12.48;;;5.47;;
32216;SDS011;67098;51.140;4.088;2023-07-31T12:28:54;12.23;;;5.45;;
32216;SDS011;67098;51.140;4.088;2023-07-31T12:31:22;11.60;;;4.78;;
32216;SDS011;67098;51.140;4.088;2023-07-31T12:33:49;12.18;;;4.72;;
32216;SDS011;67098;51.140;4.088;2023-07-31T12:36:22;10.57;;;5.20;;
32216;SDS011;67098;51.140;4.088;2023-07-31T12:38:49;14.23;;;5.60;;
32216;SDS011;67098;51.140;4.088;2023-07-31T12:41:16;10.85;;;5.25;;
32216;SDS011;67098;51.140;4.088;2023-07-31T12:43:42;11.82;;;5.25;;
32216;SDS011;67098;51.140;4.088;2023-07-31T12:46:08;15.10;;;5.75;;
32216;SDS011;67098;51.140;4.088;2023-07-31T12:48:34;11.50;;;5.07;;
32216;SDS011;67098;51.140;4.088;2023-07-31T12:51:01;11.43;;;5.47;;
32216;SDS011;67098;51.140;4.088;2023-07-31T12:53:27;10.55;;;5.40;;
32216;SDS011;67098;51.140;4.088;2023-07-31T12:55:53;13.60;;;5.85;;
32216;SDS011;67098;51.140;4.088;2023-07-31T12:58:20;14.73;;;6.68;;
32216;SDS011;67098;51.140;4.088;2023-07-31T13:00:45;15.27;;;5.95;;
32216;SDS011;67098;51.140;4.088;2023-07-31T13:03:11;12.90;;;6.00;;
32216;SDS011;67098;51.140;4.088;2023-07-31T13:05:37;14.02;;;6.15;;
32216;SDS011;67098;51.140;4.088;2023-07-31T13:08:03;12.60;;;6.30;;
32216;SDS011;67098;51.140;4.088;2023-07-31T13:10:29;11.65;;;5.65;;
32216;SDS011;67098;51.140;4.088;2023-07-31T13:12:55;11.88;;;5.43;;
32216;SDS011;67098;51.140;4.088;2023-07-31T13:15:21;8.02;;;4.70;;
32216;SDS011;67098;51.140;4.088;2023-07-31T13:17:47;10.90;;;5.93;;
32216;SDS011;67098;51.140;4.088;2023-07-31T13:20:13;9.70;;;5.70;;
32216;SDS011;67098;51.140;4.088;2023-07-31T13:22:39;14.30;;;5.03;;
32216;SDS011;67098;51.140;4.088;2023-07-31T13:25:05;8.07;;;4.47;;
32216;SDS011;67098;51.140;4.088;2023-07-31T13:27:32;9.70;;;4.50;;
32216;SDS011;67098;51.140;4.088;2023-07-31T13:29:57;10.07;;;4.38;;
32216;SDS011;67098;51.140;4.088;2023-07-31T13:32:23;10.13;;;4.38;;
32216;SDS011;67098;51.140;4.088;2023-07-31T13:34:49;9.05;;;3.85;;
32216;SDS011;67098;51.140;4.088;2023-07-31T13:37:15;6.82;;;3.58;;
32216;SDS011;67098;51.140;4.088;2023-07-31T13:39:41;5.50;;;3.92;;
32216;SDS011;67098;51.140;4.088;2023-07-31T13:42:07;8.23;;;3.55;;
32216;SDS011;67098;51.140;4.088;2023-07-31T13:44:34;7.75;;;3.75;;
32216;SDS011;67098;51.140;4.088;2023-07-31T13:47:00;5.40;;;2.88;;
32216;SDS011;67098;51.140;4.088;2023-07-31T13:49:26;6.55;;;3.20;;
32216;SDS011;67098;51.140;4.088;2023-07-31T13:51:52;5.38;;;2.45;;
32216;SDS011;67098;51.140;4.088;2023-07-31T13:54:18;6.13;;;2.88;;
32216;SDS011;67098;51.140;4.088;2023-07-31T13:56:44;4.53;;;3.00;;
32216;SDS011;67098;51.140;4.088;2023-07-31T13:59:10;5.00;;;2.92;;
32216;SDS011;67098;51.140;4.088;2023-07-31T14:01:36;5.80;;;2.85;;
32216;SDS011;67098;51.140;4.088;2023-07-31T14:04:03;3.55;;;2.30;;
32216;SDS011;67098;51.140;4.088;2023-07-31T14:06:28;3.60;;;2.10;;
32216;SDS011;67098;51.140;4.088;2023-07-31T14:08:54;4.10;;;2.15;;
32216;SDS011;67098;51.140;4.088;2023-07-31T14:11:21;3.33;;;2.13;;
32216;SDS011;67098;51.140;4.088;2023-07-31T14:13:47;3.83;;;2.15;;
32216;SDS011;67098;51.140;4.088;2023-07-31T14:16:13;3.25;;;2.13;;
32216;SDS011;67098;51.140;4.088;2023-07-31T14:18:39;5.32;;;1.98;;
32216;SDS011;67098;51.140;4.088;2023-07-31T14:21:04;2.97;;;1.83;;
32216;SDS011;67098;51.140;4.088;2023-07-31T14:23:30;3.08;;;2.10;;
32216;SDS011;67098;51.140;4.088;2023-07-31T14:25:56;2.72;;;1.77;;
32216;SDS011;67098;51.140;4.088;2023-07-31T14:28:22;6.35;;;2.30;;
32216;SDS011;67098;51.140;4.088;2023-07-31T14:30:48;5.30;;;2.20;;
32216;SDS011;67098;51.140;4.088;2023-07-31T14:33:13;3.95;;;2.13;;
32216;SDS011;67098;51.140;4.088;2023-07-31T14:35:39;2.88;;;2.03;;
32216;SDS011;67098;51.140;4.088;2023-07-31T14:38:05;4.75;;;2.30;;
32216;SDS011;67098;51.140;4.088;2023-07-31T14:40:31;5.70;;;2.22;;
32216;SDS011;67098;51.140;4.088;2023-07-31T14:42:57;9.20;;;3.15;;
32216;SDS011;67098;51.140;4.088;2023-07-31T14:45:23;7.25;;;2.80;;
32216;SDS011;67098;51.140;4.088;2023-07-31T14:47:49;5.43;;;2.72;;
32216;SDS011;67098;51.140;4.088;2023-07-31T14:50:15;5.55;;;2.83;;
32216;SDS011;67098;51.140;4.088;2023-07-31T14:52:41;6.35;;;2.80;;
32216;SDS011;67098;51.140;4.088;2023-07-31T14:55:07;6.90;;;2.72;;
32216;SDS011;67098;51.140;4.088;2023-07-31T14:57:34;5.57;;;2.72;;
32216;SDS011;67098;51.140;4.088;2023-07-31T15:00:00;5.70;;;2.60;;
32216;SDS011;67098;51.140;4.088;2023-07-31T15:02:26;3.80;;;2.30;;
32216;SDS011;67098;51.140;4.088;2023-07-31T15:04:52;7.55;;;2.55;;